createdAt,value
2022-11-16T00:00:04.445Z,13.55
2022-11-16T00:02:33.282Z,13.60
2022-11-16T00:05:00.951Z,13.64
2022-11-16T00:07:28.617Z,13.62
2022-11-16T00:09:56.072Z,13.58
2022-11-16T00:12:23.530Z,13.56
2022-11-16T00:17:18.368Z,13.53
2022-11-16T00:19:45.952Z,13.56
2022-11-16T00:22:13.807Z,13.58
2022-11-16T00:24:41.480Z,13.59
2022-11-16T00:27:08.904Z,13.63
2022-11-16T00:29:36.346Z,13.59
2022-11-16T00:32:03.917Z,13.62
2022-11-16T00:34:31.831Z,13.61
2022-11-16T00:36:59.525Z,13.61
2022-11-16T00:39:26.965Z,13.59
2022-11-16T00:41:54.376Z,13.55
2022-11-16T00:44:21.791Z,13.56
2022-11-16T02:07:19.217Z,13.58
2022-11-16T02:10:14.256Z,13.58
2022-11-16T02:13:17.006Z,13.55
2022-11-16T02:15:56.604Z,13.49
2022-11-16T02:18:42.127Z,13.49
2022-11-16T02:21:24.244Z,13.46
2022-11-16T02:24:16.376Z,13.45
2022-11-16T02:27:05.094Z,13.49
2022-11-16T02:29:42.261Z,13.50
2022-11-16T02:32:17.952Z,13.46
2022-11-16T02:34:53.496Z,13.46
2022-11-16T02:37:22.744Z,13.48
2022-11-16T02:39:57.169Z,13.47
2022-11-16T02:45:06.339Z,13.46
2022-11-16T02:47:35.512Z,13.42
2022-11-16T02:50:08.240Z,13.39
2022-11-16T02:52:36.796Z,13.40
2022-11-16T02:55:04.435Z,13.38
2022-11-16T02:57:45.258Z,13.37
2022-11-16T03:00:18.061Z,13.40
2022-11-16T03:03:31.884Z,13.38
2022-11-16T03:06:05.900Z,13.43
2022-11-16T03:08:40.604Z,13.37
2022-11-16T03:11:28.264Z,13.34
2022-11-16T03:13:58.470Z,13.29
2022-11-16T03:43:34.602Z,13.10
2022-11-16T03:46:02.323Z,13.09
2022-11-16T03:48:37.187Z,13.14
2022-11-16T03:51:05.341Z,13.16
2022-11-16T03:53:32.850Z,13.20
2022-11-16T03:56:00.236Z,13.20
2022-11-16T03:58:27.809Z,13.26
2022-11-16T04:00:55.494Z,13.24
2022-11-16T04:03:22.931Z,13.21
2022-11-16T04:06:08.561Z,13.17
2022-11-16T04:08:54.325Z,13.22
2022-11-16T04:11:41.546Z,13.26
2022-11-16T04:14:33.226Z,13.30
2022-11-16T04:20:06.702Z,13.32
2022-11-16T04:22:58.704Z,13.30
2022-11-16T04:25:28.556Z,13.32
2022-11-16T04:28:14.358Z,13.30
2022-11-16T04:31:05.033Z,13.34
2022-11-16T04:33:51.351Z,13.37
2022-11-16T04:36:37.627Z,13.31
2022-11-16T04:39:05.896Z,13.29
2022-11-16T04:41:52.726Z,13.27
2022-11-16T04:44:22.111Z,13.27
2022-11-16T04:47:06.870Z,13.29
2022-11-16T04:49:34.639Z,13.29
2022-11-16T04:52:02.075Z,13.28
2022-11-16T05:09:07.755Z,13.18
2022-11-16T05:11:35.203Z,13.14
2022-11-16T05:14:03.228Z,13.15
2022-11-16T05:16:31.284Z,13.15
2022-11-16T05:19:16.995Z,13.16
2022-11-16T05:21:44.452Z,13.18
2022-11-16T05:24:30.690Z,13.11
2022-11-16T05:26:58.123Z,13.12
2022-11-16T05:29:25.569Z,13.11
2022-11-16T05:31:53.892Z,13.17
2022-11-16T05:34:21.279Z,13.13
2022-11-16T05:36:48.670Z,13.13
2022-11-16T05:39:16.387Z,13.09
2022-11-16T05:56:32.548Z,13.11
2022-11-16T05:59:00.076Z,13.09
2022-11-16T06:01:27.528Z,13.17
2022-11-16T06:03:55.738Z,13.22
2022-11-16T06:06:23.272Z,13.15
2022-11-16T06:08:50.721Z,13.14
2022-11-16T06:11:18.167Z,13.16
2022-11-16T06:13:45.764Z,13.20
2022-11-16T06:16:13.508Z,13.18
2022-11-16T06:18:43.047Z,13.26
2022-11-16T06:21:11.523Z,13.27
2022-11-16T06:23:39.102Z,13.28
2022-11-16T06:28:35.329Z,13.25
2022-11-16T06:31:03.347Z,13.25
2022-11-16T06:33:33.565Z,13.23
2022-11-16T06:36:01.247Z,13.21
2022-11-16T06:38:28.724Z,13.25
2022-11-16T06:40:59.727Z,13.25
2022-11-16T06:43:27.555Z,13.25
2022-11-16T06:45:56.911Z,13.24
2022-11-16T06:48:24.362Z,13.23
2022-11-16T06:50:52.642Z,13.21
2022-11-16T06:53:24.623Z,13.20
2022-11-16T06:58:22.566Z,13.21
2022-11-16T07:00:51.188Z,13.21
2022-11-16T07:03:18.582Z,13.20
2022-11-16T07:05:45.971Z,13.23
2022-11-16T07:08:13.565Z,13.22
2022-11-16T07:10:40.980Z,13.23
2022-11-16T07:13:08.579Z,13.22
2022-11-16T07:15:36.017Z,13.22
2022-11-16T07:18:05.087Z,13.26
2022-11-16T07:20:33.077Z,13.25
2022-11-16T07:23:01.801Z,13.30
2022-11-16T07:25:29.625Z,13.32
2022-11-16T07:42:46.549Z,13.34
2022-11-16T07:45:13.967Z,13.33
2022-11-16T07:47:41.536Z,13.35
2022-11-16T07:50:09.239Z,13.37
2022-11-16T07:52:36.666Z,13.38
2022-11-16T07:55:06.184Z,13.38
2022-11-16T07:57:33.776Z,13.39
2022-11-16T08:00:01.289Z,13.46
2022-11-16T08:02:28.704Z,13.46
2022-11-16T08:04:56.103Z,13.48
2022-11-16T08:07:23.752Z,13.46
2022-11-16T08:09:51.247Z,13.48
2022-11-16T08:15:06.859Z,13.46
2022-11-16T08:17:34.293Z,13.49
2022-11-16T08:20:02.000Z,13.55
2022-11-16T08:22:29.558Z,13.57
2022-11-16T08:24:57.150Z,13.61
2022-11-16T08:27:24.744Z,13.65
2022-11-16T08:29:52.177Z,13.62
2022-11-16T08:32:19.596Z,13.67
2022-11-16T08:34:46.992Z,13.67
2022-11-16T08:37:14.564Z,13.67
2022-11-16T08:39:42.173Z,13.67
2022-11-16T08:42:09.564Z,13.67
2022-11-16T08:44:36.843Z,13.71
2022-11-16T08:47:04.286Z,13.73
2022-11-16T08:49:31.644Z,13.73
2022-11-16T08:51:59.205Z,13.76
2022-11-16T08:54:29.545Z,13.78
2022-11-16T08:56:56.929Z,13.75
2022-11-16T08:59:24.545Z,13.73
2022-11-16T09:01:52.048Z,13.76
2022-11-16T09:05:12.257Z,13.74
2022-11-16T09:07:40.371Z,13.79
2022-11-16T09:10:08.496Z,13.76
2022-11-16T09:12:36.273Z,13.78
2022-11-16T09:15:04.906Z,13.76
2022-11-16T09:32:06.000Z,13.78
2022-11-16T09:34:36.927Z,13.80
2022-11-16T09:37:04.592Z,13.79
2022-11-16T09:39:32.893Z,13.80
2022-11-16T09:42:08.991Z,13.84
2022-11-16T09:44:48.452Z,13.89
2022-11-16T09:47:23.139Z,13.87
2022-11-16T09:50:00.005Z,13.87
2022-11-16T09:52:44.018Z,13.90
2022-11-16T09:55:25.150Z,13.93
2022-11-16T09:57:56.815Z,13.99
2022-11-16T10:00:24.416Z,13.97
2022-11-16T10:03:13.680Z,13.96
2022-11-16T10:21:13.925Z,14.05
2022-11-16T10:24:25.952Z,14.06
2022-11-16T10:27:24.217Z,14.16
2022-11-16T10:29:57.157Z,14.14
2022-11-16T10:32:34.036Z,14.18
2022-11-16T10:35:09.993Z,14.16
2022-11-16T10:37:42.213Z,14.12
2022-11-16T10:40:18.290Z,14.13
2022-11-16T10:42:48.440Z,14.15
2022-11-16T10:45:22.591Z,14.09
2022-11-16T10:47:59.462Z,14.06
2022-11-16T13:22:59.170Z,14.86
2022-11-16T13:25:34.161Z,14.91
2022-11-16T13:28:50.028Z,15.02
2022-11-16T13:31:26.091Z,15.01
2022-11-16T13:33:58.791Z,15.01
2022-11-16T13:36:39.948Z,15.06
2022-11-16T13:39:08.145Z,15.07
2022-11-16T13:41:37.482Z,15.08
2022-11-16T13:44:11.243Z,15.14
2022-11-16T13:46:56.587Z,15.12
2022-11-16T13:49:37.206Z,15.16
2022-11-16T13:52:46.880Z,15.19
2022-11-16T13:55:01.814Z,15.19
2022-11-16T13:57:35.096Z,15.23
2022-11-16T14:00:02.324Z,15.22
2022-11-16T14:02:32.191Z,15.27
2022-11-16T14:05:01.411Z,15.30
2022-11-16T14:07:36.863Z,15.29
2022-11-16T14:10:05.903Z,15.36
2022-11-16T14:12:38.629Z,15.38
2022-11-16T14:15:17.732Z,15.44
2022-11-16T14:17:59.312Z,15.44
2022-11-16T14:20:38.508Z,15.45
2022-11-16T14:23:17.089Z,15.47
2022-11-16T14:26:02.676Z,15.53
2022-11-16T14:29:00.087Z,15.47
2022-11-16T14:31:30.776Z,15.49
2022-11-16T14:33:59.530Z,15.54
2022-11-16T14:36:37.582Z,15.52
2022-11-16T14:39:16.419Z,15.56
2022-11-16T14:41:46.920Z,15.55
2022-11-16T14:44:18.779Z,15.56
2022-11-16T14:46:46.199Z,15.61
2022-11-16T14:49:16.258Z,15.65
2022-11-16T14:51:46.105Z,15.68
2022-11-16T14:54:24.885Z,15.70
2022-11-16T14:57:03.358Z,15.72
2022-11-16T14:59:31.387Z,15.76
2022-11-16T15:02:02.776Z,15.69
2022-11-16T15:04:30.486Z,15.73
2022-11-16T15:06:59.731Z,15.71
2022-11-16T15:09:29.646Z,15.69
2022-11-16T15:12:16.455Z,15.72
2022-11-16T15:14:48.099Z,15.70
2022-11-16T15:17:20.769Z,15.68
2022-11-16T15:19:55.539Z,15.71
2022-11-16T15:22:23.247Z,15.67
2022-11-16T15:24:57.669Z,15.65
2022-11-16T15:27:43.080Z,15.54
2022-11-16T15:30:21.633Z,15.50
2022-11-16T15:32:50.061Z,15.49
2022-11-16T15:35:25.371Z,15.44
2022-11-16T15:38:24.470Z,15.39
2022-11-16T15:40:54.247Z,15.35
2022-11-16T15:43:24.634Z,15.31
2022-11-16T15:45:51.982Z,15.26
2022-11-16T15:48:25.930Z,15.21
2022-11-16T15:51:06.474Z,15.21
2022-11-16T15:53:47.725Z,15.16
2022-11-16T15:56:25.340Z,15.07
2022-11-16T15:58:57.240Z,15.05
2022-11-16T16:01:25.053Z,14.99
2022-11-16T16:03:55.413Z,14.98
2022-11-16T16:06:46.993Z,14.94
2022-11-16T16:09:20.164Z,14.90
2022-11-16T16:11:47.252Z,14.87
2022-11-16T16:14:23.632Z,14.80
2022-11-16T16:16:53.218Z,14.79
2022-11-16T16:19:43.773Z,14.74
2022-11-16T16:22:23.703Z,14.69
2022-11-16T16:24:51.466Z,14.64
2022-11-16T16:27:23.658Z,14.63
2022-11-16T16:29:52.203Z,14.57
2022-11-16T16:32:32.915Z,14.56
2022-11-16T16:35:05.000Z,14.48
2022-11-16T16:37:33.247Z,14.45
2022-11-16T16:40:00.485Z,14.48
2022-11-16T16:42:27.939Z,14.44
2022-11-16T16:44:54.768Z,14.49
2022-11-16T16:47:21.671Z,14.45
2022-11-16T16:49:49.480Z,14.43
2022-11-16T16:52:16.510Z,14.47
2022-11-16T16:54:43.572Z,14.42
2022-11-16T16:57:15.696Z,14.45
2022-11-16T16:59:45.484Z,14.47
2022-11-16T17:02:13.155Z,14.46
2022-11-16T17:04:44.302Z,14.43
